sensor_id;sensor_type;location;lat;lon;timestamp;temperature;humidity
8862;DHT22;4799;50.996;4.754;2023-06-04T00:01:21;14.40;54.10
8862;DHT22;4799;50.996;4.754;2023-06-04T00:03:47;14.40;54.50
8862;DHT22;4799;50.996;4.754;2023-06-04T00:06:13;14.30;54.80
8862;DHT22;4799;50.996;4.754;2023-06-04T00:08:39;14.30;54.90
8862;DHT22;4799;50.996;4.754;2023-06-04T00:11:05;14.30;55.20
8862;DHT22;4799;50.996;4.754;2023-06-04T00:13:31;14.20;55.40
8862;DHT22;4799;50.996;4.754;2023-06-04T00:15:56;14.20;55.50
8862;DHT22;4799;50.996;4.754;2023-06-04T00:18:22;14.10;56.10
8862;DHT22;4799;50.996;4.754;2023-06-04T00:20:48;14.00;56.90
8862;DHT22;4799;50.996;4.754;2023-06-04T00:23:13;14.00;56.70
8862;DHT22;4799;50.996;4.754;2023-06-04T00:25:39;13.90;57.30
8862;DHT22;4799;50.996;4.754;2023-06-04T00:28:05;13.80;58.10
8862;DHT22;4799;50.996;4.754;2023-06-04T00:30:31;13.80;58.10
8862;DHT22;4799;50.996;4.754;2023-06-04T00:32:56;13.80;58.50
8862;DHT22;4799;50.996;4.754;2023-06-04T00:35:22;13.70;58.40
8862;DHT22;4799;50.996;4.754;2023-06-04T00:37:48;13.60;58.90
8862;DHT22;4799;50.996;4.754;2023-06-04T00:40:14;13.60;59.40
8862;DHT22;4799;50.996;4.754;2023-06-04T00:42:40;13.60;59.60
8862;DHT22;4799;50.996;4.754;2023-06-04T00:45:06;13.50;59.90
8862;DHT22;4799;50.996;4.754;2023-06-04T00:47:35;13.50;60.70
8862;DHT22;4799;50.996;4.754;2023-06-04T00:50:01;13.50;61.20
8862;DHT22;4799;50.996;4.754;2023-06-04T00:52:27;13.50;61.60
8862;DHT22;4799;50.996;4.754;2023-06-04T00:54:53;13.40;61.90
8862;DHT22;4799;50.996;4.754;2023-06-04T00:57:22;13.30;63.40
8862;DHT22;4799;50.996;4.754;2023-06-04T00:59:48;13.30;62.90
8862;DHT22;4799;50.996;4.754;2023-06-04T01:02:20;13.30;63.30
8862;DHT22;4799;50.996;4.754;2023-06-04T01:07:23;13.20;64.50
8862;DHT22;4799;50.996;4.754;2023-06-04T01:09:50;13.10;65.20
8862;DHT22;4799;50.996;4.754;2023-06-04T01:12:16;13.10;66.10
8862;DHT22;4799;50.996;4.754;2023-06-04T01:14:43;13.10;66.80
8862;DHT22;4799;50.996;4.754;2023-06-04T01:17:19;13.10;67.00
8862;DHT22;4799;50.996;4.754;2023-06-04T01:25:15;13.00;69.50
8862;DHT22;4799;50.996;4.754;2023-06-04T01:27:47;12.90;69.90
8862;DHT22;4799;50.996;4.754;2023-06-04T01:30:14;12.90;71.30
8862;DHT22;4799;50.996;4.754;2023-06-04T01:32:41;12.80;72.10
8862;DHT22;4799;50.996;4.754;2023-06-04T01:35:11;12.80;73.30
8862;DHT22;4799;50.996;4.754;2023-06-04T01:37:37;12.80;73.80
8862;DHT22;4799;50.996;4.754;2023-06-04T01:40:03;12.70;74.90
8862;DHT22;4799;50.996;4.754;2023-06-04T01:42:30;12.70;77.30
8862;DHT22;4799;50.996;4.754;2023-06-04T01:44:56;12.70;78.20
8862;DHT22;4799;50.996;4.754;2023-06-04T01:47:22;12.70;79.40
8862;DHT22;4799;50.996;4.754;2023-06-04T01:49:48;12.60;80.20
8862;DHT22;4799;50.996;4.754;2023-06-04T01:52:13;12.70;82.00
8862;DHT22;4799;50.996;4.754;2023-06-04T01:54:39;12.60;82.80
8862;DHT22;4799;50.996;4.754;2023-06-04T01:57:06;12.60;83.90
8862;DHT22;4799;50.996;4.754;2023-06-04T01:59:32;12.60;85.60
8862;DHT22;4799;50.996;4.754;2023-06-04T02:01:58;12.50;86.90
8862;DHT22;4799;50.996;4.754;2023-06-04T02:04:24;12.50;88.20
8862;DHT22;4799;50.996;4.754;2023-06-04T02:06:50;12.50;90.00
8862;DHT22;4799;50.996;4.754;2023-06-04T02:09:16;12.50;90.50
8862;DHT22;4799;50.996;4.754;2023-06-04T02:11:42;12.50;90.90
8862;DHT22;4799;50.996;4.754;2023-06-04T02:14:08;12.50;91.30
8862;DHT22;4799;50.996;4.754;2023-06-04T02:16:33;12.50;91.80
8862;DHT22;4799;50.996;4.754;2023-06-04T02:18:59;12.40;92.00
8862;DHT22;4799;50.996;4.754;2023-06-04T02:21:25;12.40;92.20
8862;DHT22;4799;50.996;4.754;2023-06-04T02:23:50;12.40;92.80
8862;DHT22;4799;50.996;4.754;2023-06-04T02:26:16;12.40;93.00
8862;DHT22;4799;50.996;4.754;2023-06-04T02:28:42;12.40;93.40
8862;DHT22;4799;50.996;4.754;2023-06-04T02:31:08;12.40;93.70
8862;DHT22;4799;50.996;4.754;2023-06-04T02:33:34;12.40;94.00
8862;DHT22;4799;50.996;4.754;2023-06-04T02:36:00;12.40;94.10
8862;DHT22;4799;50.996;4.754;2023-06-04T02:38:27;12.30;94.40
8862;DHT22;4799;50.996;4.754;2023-06-04T02:40:53;12.20;94.10
8862;DHT22;4799;50.996;4.754;2023-06-04T02:43:18;12.20;94.50
8862;DHT22;4799;50.996;4.754;2023-06-04T02:45:44;12.20;94.90
8862;DHT22;4799;50.996;4.754;2023-06-04T02:48:10;12.10;95.00
8862;DHT22;4799;50.996;4.754;2023-06-04T02:50:36;12.10;95.50
8862;DHT22;4799;50.996;4.754;2023-06-04T02:53:02;12.10;95.90
8862;DHT22;4799;50.996;4.754;2023-06-04T02:55:27;12.10;96.00
8862;DHT22;4799;50.996;4.754;2023-06-04T02:57:53;12.10;96.30
8862;DHT22;4799;50.996;4.754;2023-06-04T03:00:19;12.10;96.70
8862;DHT22;4799;50.996;4.754;2023-06-04T03:02:46;12.10;96.80
8862;DHT22;4799;50.996;4.754;2023-06-04T03:05:13;12.10;97.10
8862;DHT22;4799;50.996;4.754;2023-06-04T03:07:41;12.00;97.20
8862;DHT22;4799;50.996;4.754;2023-06-04T03:10:09;12.00;97.40
8862;DHT22;4799;50.996;4.754;2023-06-04T03:12:35;12.00;97.60
8862;DHT22;4799;50.996;4.754;2023-06-04T03:15:02;11.90;97.90
8862;DHT22;4799;50.996;4.754;2023-06-04T03:17:27;11.90;97.90
8862;DHT22;4799;50.996;4.754;2023-06-04T03:19:53;11.80;98.00
8862;DHT22;4799;50.996;4.754;2023-06-04T03:22:21;11.80;98.10
8862;DHT22;4799;50.996;4.754;2023-06-04T03:24:48;11.80;98.70
8862;DHT22;4799;50.996;4.754;2023-06-04T03:27:13;11.70;98.80
8862;DHT22;4799;50.996;4.754;2023-06-04T03:29:39;11.70;99.20
8862;DHT22;4799;50.996;4.754;2023-06-04T03:32:06;11.70;99.30
8862;DHT22;4799;50.996;4.754;2023-06-04T03:34:32;11.70;99.70
8862;DHT22;4799;50.996;4.754;2023-06-04T03:36:58;11.60;99.80
8862;DHT22;4799;50.996;4.754;2023-06-04T03:39:25;11.60;99.80
8862;DHT22;4799;50.996;4.754;2023-06-04T03:41:51;11.60;99.90
8862;DHT22;4799;50.996;4.754;2023-06-04T03:44:17;11.60;99.90
8862;DHT22;4799;50.996;4.754;2023-06-04T03:46:44;11.50;99.90
8862;DHT22;4799;50.996;4.754;2023-06-04T03:49:10;11.50;99.90
8862;DHT22;4799;50.996;4.754;2023-06-04T03:51:37;11.50;99.90
8862;DHT22;4799;50.996;4.754;2023-06-04T03:54:03;11.40;99.90
8862;DHT22;4799;50.996;4.754;2023-06-04T03:56:29;11.50;99.90
8862;DHT22;4799;50.996;4.754;2023-06-04T03:58:56;11.50;99.90
8862;DHT22;4799;50.996;4.754;2023-06-04T04:01:21;11.60;99.90
8862;DHT22;4799;50.996;4.754;2023-06-04T04:03:49;11.70;99.90
8862;DHT22;4799;50.996;4.754;2023-06-04T04:06:16;11.80;99.90
8862;DHT22;4799;50.996;4.754;2023-06-04T04:08:43;11.90;99.90
8862;DHT22;4799;50.996;4.754;2023-06-04T04:11:13;12.00;99.90
8862;DHT22;4799;50.996;4.754;2023-06-04T04:13:40;12.10;99.90
8862;DHT22;4799;50.996;4.754;2023-06-04T04:16:06;12.20;99.90
8862;DHT22;4799;50.996;4.754;2023-06-04T04:18:35;12.30;99.90
8862;DHT22;4799;50.996;4.754;2023-06-04T04:21:02;12.40;99.90
8862;DHT22;4799;50.996;4.754;2023-06-04T04:23:29;12.50;99.90
8862;DHT22;4799;50.996;4.754;2023-06-04T04:25:55;12.60;99.90
8862;DHT22;4799;50.996;4.754;2023-06-04T04:28:25;12.70;99.90
8862;DHT22;4799;50.996;4.754;2023-06-04T04:30:54;12.70;99.90
8862;DHT22;4799;50.996;4.754;2023-06-04T04:33:22;12.80;99.70
8862;DHT22;4799;50.996;4.754;2023-06-04T04:35:50;12.90;99.60
8862;DHT22;4799;50.996;4.754;2023-06-04T04:38:16;12.90;99.50
8862;DHT22;4799;50.996;4.754;2023-06-04T04:40:43;13.00;99.40
8862;DHT22;4799;50.996;4.754;2023-06-04T04:43:09;13.00;99.30
8862;DHT22;4799;50.996;4.754;2023-06-04T04:45:34;13.00;99.20
8862;DHT22;4799;50.996;4.754;2023-06-04T04:48:00;13.10;99.20
8862;DHT22;4799;50.996;4.754;2023-06-04T04:50:26;13.00;99.10
8862;DHT22;4799;50.996;4.754;2023-06-04T04:52:52;13.00;99.40
8862;DHT22;4799;50.996;4.754;2023-06-04T04:55:17;13.00;99.60
8862;DHT22;4799;50.996;4.754;2023-06-04T04:57:43;12.90;99.80
8862;DHT22;4799;50.996;4.754;2023-06-04T05:00:09;12.90;99.90
8862;DHT22;4799;50.996;4.754;2023-06-04T05:02:35;12.90;99.90
8862;DHT22;4799;50.996;4.754;2023-06-04T05:05:02;12.90;99.90
8862;DHT22;4799;50.996;4.754;2023-06-04T05:07:28;12.90;99.90
8862;DHT22;4799;50.996;4.754;2023-06-04T05:09:54;12.90;99.90
8862;DHT22;4799;50.996;4.754;2023-06-04T05:12:20;12.90;99.90
8862;DHT22;4799;50.996;4.754;2023-06-04T05:14:46;12.90;99.90
8862;DHT22;4799;50.996;4.754;2023-06-04T05:17:12;13.00;99.90
8862;DHT22;4799;50.996;4.754;2023-06-04T05:19:38;13.00;99.90
8862;DHT22;4799;50.996;4.754;2023-06-04T05:22:04;13.00;99.90
8862;DHT22;4799;50.996;4.754;2023-06-04T05:24:31;13.10;99.90
8862;DHT22;4799;50.996;4.754;2023-06-04T05:26:58;13.10;99.90
8862;DHT22;4799;50.996;4.754;2023-06-04T05:29:24;13.10;99.90
8862;DHT22;4799;50.996;4.754;2023-06-04T05:31:50;13.20;99.90
8862;DHT22;4799;50.996;4.754;2023-06-04T05:34:16;13.20;99.90
8862;DHT22;4799;50.996;4.754;2023-06-04T05:36:42;13.30;99.90
8862;DHT22;4799;50.996;4.754;2023-06-04T05:39:11;13.30;99.90
8862;DHT22;4799;50.996;4.754;2023-06-04T05:41:37;13.40;99.90
8862;DHT22;4799;50.996;4.754;2023-06-04T05:44:04;13.50;99.90
8862;DHT22;4799;50.996;4.754;2023-06-04T05:46:29;13.50;99.90
8862;DHT22;4799;50.996;4.754;2023-06-04T05:48:55;13.60;99.90
8862;DHT22;4799;50.996;4.754;2023-06-04T05:51:21;13.70;99.90
8862;DHT22;4799;50.996;4.754;2023-06-04T05:53:47;13.70;99.90
8862;DHT22;4799;50.996;4.754;2023-06-04T05:56:13;13.80;99.90
8862;DHT22;4799;50.996;4.754;2023-06-04T05:58:39;13.80;99.90
8862;DHT22;4799;50.996;4.754;2023-06-04T06:01:05;13.90;99.90
8862;DHT22;4799;50.996;4.754;2023-06-04T06:03:31;13.90;99.70
8862;DHT22;4799;50.996;4.754;2023-06-04T06:05:57;14.00;99.50
8862;DHT22;4799;50.996;4.754;2023-06-04T06:08:25;14.10;99.50
8862;DHT22;4799;50.996;4.754;2023-06-04T06:10:51;14.20;99.20
8862;DHT22;4799;50.996;4.754;2023-06-04T06:13:16;14.20;99.10
8862;DHT22;4799;50.996;4.754;2023-06-04T06:15:42;14.30;98.90
8862;DHT22;4799;50.996;4.754;2023-06-04T06:18:09;14.40;98.40
8862;DHT22;4799;50.996;4.754;2023-06-04T06:20:34;14.40;97.40
8862;DHT22;4799;50.996;4.754;2023-06-04T06:23:07;14.50;97.50
8862;DHT22;4799;50.996;4.754;2023-06-04T06:25:33;14.60;97.20
8862;DHT22;4799;50.996;4.754;2023-06-04T06:27:59;14.60;96.50
8862;DHT22;4799;50.996;4.754;2023-06-04T06:30:25;14.70;96.30
8862;DHT22;4799;50.996;4.754;2023-06-04T06:32:50;14.80;96.30
8862;DHT22;4799;50.996;4.754;2023-06-04T06:35:17;14.90;96.10
8862;DHT22;4799;50.996;4.754;2023-06-04T06:37:43;15.00;95.60
8862;DHT22;4799;50.996;4.754;2023-06-04T06:40:09;15.10;95.20
8862;DHT22;4799;50.996;4.754;2023-06-04T06:42:36;15.20;94.70
8862;DHT22;4799;50.996;4.754;2023-06-04T06:45:02;15.20;94.60
8862;DHT22;4799;50.996;4.754;2023-06-04T06:47:27;15.40;93.70
8862;DHT22;4799;50.996;4.754;2023-06-04T06:49:53;15.40;93.50
8862;DHT22;4799;50.996;4.754;2023-06-04T06:52:20;15.50;92.90
8862;DHT22;4799;50.996;4.754;2023-06-04T06:54:46;15.60;92.80
8862;DHT22;4799;50.996;4.754;2023-06-04T06:57:12;15.70;92.10
8862;DHT22;4799;50.996;4.754;2023-06-04T06:59:38;15.70;91.60
8862;DHT22;4799;50.996;4.754;2023-06-04T07:02:05;15.70;91.60
8862;DHT22;4799;50.996;4.754;2023-06-04T07:04:31;15.80;91.20
8862;DHT22;4799;50.996;4.754;2023-06-04T07:06:57;15.90;90.70
8862;DHT22;4799;50.996;4.754;2023-06-04T07:09:23;15.90;90.10
8862;DHT22;4799;50.996;4.754;2023-06-04T07:11:48;16.00;90.20
8862;DHT22;4799;50.996;4.754;2023-06-04T07:14:14;16.10;89.50
8862;DHT22;4799;50.996;4.754;2023-06-04T07:16:40;16.20;87.70
8862;DHT22;4799;50.996;4.754;2023-06-04T07:19:06;16.20;85.80
8862;DHT22;4799;50.996;4.754;2023-06-04T07:21:31;16.30;85.00
8862;DHT22;4799;50.996;4.754;2023-06-04T07:23:57;16.40;84.70
8862;DHT22;4799;50.996;4.754;2023-06-04T07:26:23;16.50;85.20
8862;DHT22;4799;50.996;4.754;2023-06-04T07:28:50;16.70;84.80
8862;DHT22;4799;50.996;4.754;2023-06-04T07:31:17;16.70;78.20
8862;DHT22;4799;50.996;4.754;2023-06-04T07:33:43;16.70;75.40
8862;DHT22;4799;50.996;4.754;2023-06-04T07:36:15;16.80;72.20
8862;DHT22;4799;50.996;4.754;2023-06-04T07:38:42;16.90;72.60
8862;DHT22;4799;50.996;4.754;2023-06-04T07:41:08;17.00;69.40
8862;DHT22;4799;50.996;4.754;2023-06-04T07:43:35;17.10;68.60
8862;DHT22;4799;50.996;4.754;2023-06-04T07:46:01;17.20;68.00
8862;DHT22;4799;50.996;4.754;2023-06-04T07:48:27;17.30;69.30
8862;DHT22;4799;50.996;4.754;2023-06-04T07:51:00;17.40;69.30
8862;DHT22;4799;50.996;4.754;2023-06-04T07:53:26;17.40;67.50
8862;DHT22;4799;50.996;4.754;2023-06-04T07:55:53;17.50;68.20
8862;DHT22;4799;50.996;4.754;2023-06-04T07:58:19;17.60;68.40
8862;DHT22;4799;50.996;4.754;2023-06-04T08:00:45;17.70;66.80
8862;DHT22;4799;50.996;4.754;2023-06-04T08:03:11;17.80;65.90
8862;DHT22;4799;50.996;4.754;2023-06-04T08:05:37;17.90;63.40
8862;DHT22;4799;50.996;4.754;2023-06-04T08:08:03;17.90;61.30
8862;DHT22;4799;50.996;4.754;2023-06-04T08:10:30;18.00;62.40
8862;DHT22;4799;50.996;4.754;2023-06-04T08:12:56;18.20;62.80
8862;DHT22;4799;50.996;4.754;2023-06-04T08:15:22;18.20;60.20
8862;DHT22;4799;50.996;4.754;2023-06-04T08:17:48;18.30;58.80
8862;DHT22;4799;50.996;4.754;2023-06-04T08:20:14;18.40;58.60
8862;DHT22;4799;50.996;4.754;2023-06-04T08:22:40;18.50;58.20
8862;DHT22;4799;50.996;4.754;2023-06-04T08:25:07;18.60;58.00
8862;DHT22;4799;50.996;4.754;2023-06-04T08:27:34;18.70;57.40
8862;DHT22;4799;50.996;4.754;2023-06-04T08:30:00;18.70;55.60
8862;DHT22;4799;50.996;4.754;2023-06-04T08:32:26;18.80;55.30
8862;DHT22;4799;50.996;4.754;2023-06-04T08:34:51;18.90;55.40
8862;DHT22;4799;50.996;4.754;2023-06-04T08:37:17;19.00;55.50
8862;DHT22;4799;50.996;4.754;2023-06-04T08:39:43;19.00;54.90
8862;DHT22;4799;50.996;4.754;2023-06-04T08:42:29;19.00;53.90
8862;DHT22;4799;50.996;4.754;2023-06-04T08:44:57;19.00;52.80
8862;DHT22;4799;50.996;4.754;2023-06-04T08:47:25;19.10;52.80
8862;DHT22;4799;50.996;4.754;2023-06-04T08:49:58;19.10;52.80
8862;DHT22;4799;50.996;4.754;2023-06-04T08:52:25;19.20;52.50
8862;DHT22;4799;50.996;4.754;2023-06-04T08:54:52;19.20;52.80
8862;DHT22;4799;50.996;4.754;2023-06-04T08:57:18;19.30;52.80
8862;DHT22;4799;50.996;4.754;2023-06-04T08:59:48;19.40;53.50
8862;DHT22;4799;50.996;4.754;2023-06-04T09:02:17;19.50;52.50
8862;DHT22;4799;50.996;4.754;2023-06-04T09:04:43;19.40;52.00
8862;DHT22;4799;50.996;4.754;2023-06-04T09:07:13;19.50;52.00
8862;DHT22;4799;50.996;4.754;2023-06-04T09:09:40;19.60;52.20
8862;DHT22;4799;50.996;4.754;2023-06-04T09:12:15;19.70;52.10
8862;DHT22;4799;50.996;4.754;2023-06-04T09:14:43;19.90;52.70
8862;DHT22;4799;50.996;4.754;2023-06-04T09:17:08;19.90;52.20
8862;DHT22;4799;50.996;4.754;2023-06-04T09:19:34;20.00;51.60
8862;DHT22;4799;50.996;4.754;2023-06-04T09:22:00;20.10;51.60
8862;DHT22;4799;50.996;4.754;2023-06-04T09:24:46;20.20;51.30
8862;DHT22;4799;50.996;4.754;2023-06-04T09:27:20;20.20;50.90
8862;DHT22;4799;50.996;4.754;2023-06-04T09:29:53;20.20;50.50
8862;DHT22;4799;50.996;4.754;2023-06-04T09:32:27;20.30;51.00
8862;DHT22;4799;50.996;4.754;2023-06-04T09:34:54;20.50;51.10
8862;DHT22;4799;50.996;4.754;2023-06-04T09:37:21;20.50;50.40
8862;DHT22;4799;50.996;4.754;2023-06-04T09:39:55;20.50;49.60
8862;DHT22;4799;50.996;4.754;2023-06-04T09:42:24;20.50;49.20
8862;DHT22;4799;50.996;4.754;2023-06-04T09:44:50;20.50;49.20
8862;DHT22;4799;50.996;4.754;2023-06-04T09:47:15;20.50;49.80
8862;DHT22;4799;50.996;4.754;2023-06-04T09:52:08;20.80;50.50
8862;DHT22;4799;50.996;4.754;2023-06-04T09:54:38;20.90;50.10
8862;DHT22;4799;50.996;4.754;2023-06-04T09:57:13;21.00;49.90
8862;DHT22;4799;50.996;4.754;2023-06-04T09:59:42;21.00;48.80
8862;DHT22;4799;50.996;4.754;2023-06-04T10:02:09;21.00;48.20
8862;DHT22;4799;50.996;4.754;2023-06-04T10:04:37;21.10;48.40
8862;DHT22;4799;50.996;4.754;2023-06-04T10:07:07;21.20;49.00
8862;DHT22;4799;50.996;4.754;2023-06-04T10:09:35;21.20;47.90
8862;DHT22;4799;50.996;4.754;2023-06-04T10:12:09;21.20;47.30
8862;DHT22;4799;50.996;4.754;2023-06-04T10:14:54;21.30;47.50
8862;DHT22;4799;50.996;4.754;2023-06-04T10:17:23;21.50;46.90
8862;DHT22;4799;50.996;4.754;2023-06-04T10:19:50;21.60;46.90
8862;DHT22;4799;50.996;4.754;2023-06-04T10:22:22;21.60;47.10
8862;DHT22;4799;50.996;4.754;2023-06-04T10:24:49;21.50;47.30
8862;DHT22;4799;50.996;4.754;2023-06-04T10:27:17;21.60;46.30
8862;DHT22;4799;50.996;4.754;2023-06-04T10:29:46;21.60;46.30
8862;DHT22;4799;50.996;4.754;2023-06-04T10:32:11;21.60;46.70
8862;DHT22;4799;50.996;4.754;2023-06-04T10:34:37;21.60;45.50
8862;DHT22;4799;50.996;4.754;2023-06-04T10:37:03;21.70;46.70
8862;DHT22;4799;50.996;4.754;2023-06-04T10:39:31;21.70;45.30
8862;DHT22;4799;50.996;4.754;2023-06-04T10:42:04;21.80;45.50
8862;DHT22;4799;50.996;4.754;2023-06-04T10:44:31;21.80;45.40
8862;DHT22;4799;50.996;4.754;2023-06-04T10:46:58;22.00;45.70
8862;DHT22;4799;50.996;4.754;2023-06-04T10:49:28;22.10;46.30
8862;DHT22;4799;50.996;4.754;2023-06-04T10:51:54;22.10;45.60
8862;DHT22;4799;50.996;4.754;2023-06-04T10:54:29;22.10;44.80
8862;DHT22;4799;50.996;4.754;2023-06-04T10:56:55;22.10;44.30
8862;DHT22;4799;50.996;4.754;2023-06-04T10:59:21;22.10;44.90
8862;DHT22;4799;50.996;4.754;2023-06-04T11:01:49;22.20;45.30
8862;DHT22;4799;50.996;4.754;2023-06-04T11:04:25;22.40;45.20
8862;DHT22;4799;50.996;4.754;2023-06-04T11:07:05;22.40;44.70
8862;DHT22;4799;50.996;4.754;2023-06-04T11:09:52;22.40;44.30
8862;DHT22;4799;50.996;4.754;2023-06-04T11:12:18;22.40;43.80
8862;DHT22;4799;50.996;4.754;2023-06-04T11:14:57;22.40;43.80
8862;DHT22;4799;50.996;4.754;2023-06-04T11:17:23;22.40;43.30
8862;DHT22;4799;50.996;4.754;2023-06-04T11:19:49;22.60;43.80
8862;DHT22;4799;50.996;4.754;2023-06-04T11:22:15;22.50;43.40
8862;DHT22;4799;50.996;4.754;2023-06-04T11:24:40;22.50;42.80
8862;DHT22;4799;50.996;4.754;2023-06-04T11:27:06;22.60;42.50
8862;DHT22;4799;50.996;4.754;2023-06-04T11:29:32;22.70;43.10
8862;DHT22;4799;50.996;4.754;2023-06-04T11:31:58;22.70;41.80
8862;DHT22;4799;50.996;4.754;2023-06-04T11:34:28;22.80;42.60
8862;DHT22;4799;50.996;4.754;2023-06-04T11:36:55;22.90;43.20
8862;DHT22;4799;50.996;4.754;2023-06-04T11:39:34;23.00;42.80
8862;DHT22;4799;50.996;4.754;2023-06-04T11:42:04;23.10;42.00
8862;DHT22;4799;50.996;4.754;2023-06-04T11:44:31;23.10;41.90
8862;DHT22;4799;50.996;4.754;2023-06-04T11:46:57;23.10;43.20
8862;DHT22;4799;50.996;4.754;2023-06-04T11:49:22;23.10;42.20
8862;DHT22;4799;50.996;4.754;2023-06-04T11:51:50;23.10;41.20
8862;DHT22;4799;50.996;4.754;2023-06-04T11:54:16;23.10;40.40
8862;DHT22;4799;50.996;4.754;2023-06-04T11:56:43;23.10;40.80
8862;DHT22;4799;50.996;4.754;2023-06-04T11:59:16;23.20;40.90
8862;DHT22;4799;50.996;4.754;2023-06-04T12:01:43;23.20;40.80
8862;DHT22;4799;50.996;4.754;2023-06-04T12:04:16;23.30;41.60
8862;DHT22;4799;50.996;4.754;2023-06-04T12:06:58;23.40;41.60
8862;DHT22;4799;50.996;4.754;2023-06-04T12:09:30;23.50;41.40
8862;DHT22;4799;50.996;4.754;2023-06-04T12:12:04;23.60;41.30
8862;DHT22;4799;50.996;4.754;2023-06-04T12:14:30;23.70;40.80
8862;DHT22;4799;50.996;4.754;2023-06-04T12:17:07;23.80;40.40
8862;DHT22;4799;50.996;4.754;2023-06-04T12:19:34;23.70;40.50
8862;DHT22;4799;50.996;4.754;2023-06-04T12:22:10;23.80;41.40
8862;DHT22;4799;50.996;4.754;2023-06-04T12:24:49;24.00;41.70
8862;DHT22;4799;50.996;4.754;2023-06-04T12:27:18;24.10;41.60
8862;DHT22;4799;50.996;4.754;2023-06-04T12:30:01;24.20;40.90
8862;DHT22;4799;50.996;4.754;2023-06-04T12:32:28;24.30;40.50
8862;DHT22;4799;50.996;4.754;2023-06-04T12:34:54;24.30;40.10
8862;DHT22;4799;50.996;4.754;2023-06-04T12:37:24;24.40;40.20
8862;DHT22;4799;50.996;4.754;2023-06-04T12:39:53;24.40;40.10
8862;DHT22;4799;50.996;4.754;2023-06-04T12:42:20;24.30;38.50
8862;DHT22;4799;50.996;4.754;2023-06-04T12:44:46;24.20;38.60
8862;DHT22;4799;50.996;4.754;2023-06-04T12:47:12;24.20;39.20
8862;DHT22;4799;50.996;4.754;2023-06-04T12:49:38;24.30;38.60
8862;DHT22;4799;50.996;4.754;2023-06-04T12:52:04;24.30;38.50
8862;DHT22;4799;50.996;4.754;2023-06-04T12:54:30;24.50;39.40
8862;DHT22;4799;50.996;4.754;2023-06-04T12:56:56;24.60;39.40
8862;DHT22;4799;50.996;4.754;2023-06-04T12:59:27;24.60;38.90
8862;DHT22;4799;50.996;4.754;2023-06-04T13:01:55;24.70;39.30
8862;DHT22;4799;50.996;4.754;2023-06-04T13:04:21;24.70;38.80
8862;DHT22;4799;50.996;4.754;2023-06-04T13:06:49;24.80;38.80
8862;DHT22;4799;50.996;4.754;2023-06-04T13:09:15;25.00;38.70
8862;DHT22;4799;50.996;4.754;2023-06-04T13:11:42;25.00;38.30
8862;DHT22;4799;50.996;4.754;2023-06-04T13:14:09;25.00;38.40
8862;DHT22;4799;50.996;4.754;2023-06-04T13:16:35;25.00;37.60
8862;DHT22;4799;50.996;4.754;2023-06-04T13:19:01;24.80;36.70
8862;DHT22;4799;50.996;4.754;2023-06-04T13:21:27;24.80;37.50
8862;DHT22;4799;50.996;4.754;2023-06-04T13:23:53;24.80;38.10
8862;DHT22;4799;50.996;4.754;2023-06-04T13:26:20;24.90;37.30
8862;DHT22;4799;50.996;4.754;2023-06-04T13:28:46;24.90;36.70
8862;DHT22;4799;50.996;4.754;2023-06-04T13:31:12;25.00;37.30
8862;DHT22;4799;50.996;4.754;2023-06-04T13:33:38;25.00;36.70
8862;DHT22;4799;50.996;4.754;2023-06-04T13:36:05;25.00;36.30
8862;DHT22;4799;50.996;4.754;2023-06-04T13:38:34;25.00;36.60
8862;DHT22;4799;50.996;4.754;2023-06-04T13:41:00;25.00;36.20
8862;DHT22;4799;50.996;4.754;2023-06-04T13:43:26;25.00;35.50
8862;DHT22;4799;50.996;4.754;2023-06-04T13:45:52;25.00;36.00
8862;DHT22;4799;50.996;4.754;2023-06-04T13:48:18;25.00;35.30
8862;DHT22;4799;50.996;4.754;2023-06-04T13:50:44;25.00;35.30
8862;DHT22;4799;50.996;4.754;2023-06-04T13:53:10;25.00;35.60
8862;DHT22;4799;50.996;4.754;2023-06-04T13:55:36;25.20;36.40
8862;DHT22;4799;50.996;4.754;2023-06-04T13:58:02;25.30;35.30
8862;DHT22;4799;50.996;4.754;2023-06-04T14:00:27;25.20;34.80
8862;DHT22;4799;50.996;4.754;2023-06-04T14:02:55;25.20;36.00
8862;DHT22;4799;50.996;4.754;2023-06-04T14:05:22;25.10;35.40
8862;DHT22;4799;50.996;4.754;2023-06-04T14:07:49;25.20;36.10
8862;DHT22;4799;50.996;4.754;2023-06-04T14:10:14;25.20;35.40
8862;DHT22;4799;50.996;4.754;2023-06-04T14:12:40;25.20;35.90
8862;DHT22;4799;50.996;4.754;2023-06-04T14:15:07;25.40;35.40
8862;DHT22;4799;50.996;4.754;2023-06-04T14:17:34;25.50;35.30
8862;DHT22;4799;50.996;4.754;2023-06-04T14:20:01;25.70;35.60
8862;DHT22;4799;50.996;4.754;2023-06-04T14:22:36;25.70;35.90
8862;DHT22;4799;50.996;4.754;2023-06-04T14:25:06;25.70;35.70
8862;DHT22;4799;50.996;4.754;2023-06-04T14:27:33;25.70;35.10
8862;DHT22;4799;50.996;4.754;2023-06-04T14:29:59;25.60;35.20
8862;DHT22;4799;50.996;4.754;2023-06-04T14:32:25;25.70;35.50
8862;DHT22;4799;50.996;4.754;2023-06-04T14:34:51;25.70;34.60
8862;DHT22;4799;50.996;4.754;2023-06-04T14:37:17;25.70;34.00
8862;DHT22;4799;50.996;4.754;2023-06-04T14:39:42;25.70;34.70
8862;DHT22;4799;50.996;4.754;2023-06-04T14:42:08;25.90;35.10
8862;DHT22;4799;50.996;4.754;2023-06-04T14:44:34;26.00;35.40
8862;DHT22;4799;50.996;4.754;2023-06-04T14:46:59;26.00;35.30
8862;DHT22;4799;50.996;4.754;2023-06-04T14:49:25;26.00;34.50
8862;DHT22;4799;50.996;4.754;2023-06-04T14:51:51;26.00;34.90
8862;DHT22;4799;50.996;4.754;2023-06-04T14:54:17;26.00;34.50
8862;DHT22;4799;50.996;4.754;2023-06-04T14:56:43;25.90;33.70
8862;DHT22;4799;50.996;4.754;2023-06-04T14:59:09;25.90;33.90
8862;DHT22;4799;50.996;4.754;2023-06-04T15:01:40;26.00;33.80
8862;DHT22;4799;50.996;4.754;2023-06-04T15:04:07;26.30;34.70
8862;DHT22;4799;50.996;4.754;2023-06-04T15:06:33;26.70;34.90
8862;DHT22;4799;50.996;4.754;2023-06-04T15:08:59;26.70;34.80
8862;DHT22;4799;50.996;4.754;2023-06-04T15:11:25;26.70;35.60
8862;DHT22;4799;50.996;4.754;2023-06-04T15:13:52;26.50;34.90
8862;DHT22;4799;50.996;4.754;2023-06-04T15:16:18;26.30;34.90
8862;DHT22;4799;50.996;4.754;2023-06-04T15:18:44;26.20;34.60
8862;DHT22;4799;50.996;4.754;2023-06-04T15:21:10;26.20;34.60
8862;DHT22;4799;50.996;4.754;2023-06-04T15:23:36;26.10;34.60
8862;DHT22;4799;50.996;4.754;2023-06-04T15:26:02;26.20;35.30
8862;DHT22;4799;50.996;4.754;2023-06-04T15:28:28;26.20;35.10
8862;DHT22;4799;50.996;4.754;2023-06-04T15:30:53;26.10;35.40
8862;DHT22;4799;50.996;4.754;2023-06-04T15:33:19;26.00;36.00
8862;DHT22;4799;50.996;4.754;2023-06-04T15:35:45;26.10;36.60
8862;DHT22;4799;50.996;4.754;2023-06-04T15:38:11;26.20;36.20
8862;DHT22;4799;50.996;4.754;2023-06-04T15:40:37;26.40;36.90
8862;DHT22;4799;50.996;4.754;2023-06-04T15:43:02;26.30;36.40
8862;DHT22;4799;50.996;4.754;2023-06-04T15:45:28;26.40;36.60
8862;DHT22;4799;50.996;4.754;2023-06-04T15:47:54;26.50;36.70
8862;DHT22;4799;50.996;4.754;2023-06-04T15:50:19;26.50;36.70
8862;DHT22;4799;50.996;4.754;2023-06-04T15:52:47;26.40;36.90
8862;DHT22;4799;50.996;4.754;2023-06-04T15:55:13;26.40;36.80
8862;DHT22;4799;50.996;4.754;2023-06-04T15:57:39;26.40;37.30
8862;DHT22;4799;50.996;4.754;2023-06-04T16:00:07;26.50;37.40
8862;DHT22;4799;50.996;4.754;2023-06-04T16:02:33;26.80;37.00
8862;DHT22;4799;50.996;4.754;2023-06-04T16:04:58;27.10;36.80
8862;DHT22;4799;50.996;4.754;2023-06-04T16:07:24;27.50;36.20
8862;DHT22;4799;50.996;4.754;2023-06-04T16:09:50;27.80;36.30
8862;DHT22;4799;50.996;4.754;2023-06-04T16:12:15;27.90;35.70